Capitol Logistics 431


KMSY
Louis Armstrong New Orleans International Airport
New Orleans, Louisiana, US
KBNA
Nashville International Airport
Nashville, Tennessee, US

Activity Log

Date Flight Route Aircraft Duration
07/10/2020 CPX431 LBY MEI IGB HRTUN CHSNE2 B752 1h 28m
05/11/2020 CPX431 LBY MEI IGB HRTUN CHSNE2 B752 1h 16m
03/06/2020 CPX431 LBY MEI IGB HRTUN CHSNE2 B752 1h 16m
09/22/2019 CPX431 N0455F410 HRV MCB J35 XESSS/N0459F350 J35 MEM CHSNE2 B752 1h 29m
06/11/2019 CPX431 KMSY LBY MEI IGB HRTUN CHSNE2 KBNA B752 1h 14m
02/17/2019 CPX431 LBY MEI IGB HRTUN CHSNE2 B752 1h 18m

Route Details

Aircraft Information
Primary: Boeing 757-200SF
Backup: Boeing 737-800BCF
Route Data
Distance: 410nm
Sched. Duration: 1h 19m
Avg. Duration: 1h 20m (+1m)
Times Flown: 6
Recm'd Route: LBY MEI IGB HRTUN CHSNE2
Planned Altitude: 37,000ft
Origin Wx: KMSY 221653Z 09008G16KT 10SM BKN021 BKN250 29/22 A3003 RMK AO2 SLP172 T02890222
Dest. Wx: KBNA 221653Z 17009KT 10SM FEW043 FEW090 28/17 A3017 RMK AO2 SLP210 T02780167
Notes:

Financial History
Total Freight: 310,220lbs
Average Load: 51,703lbs/flt
Fuel Used: 59,190lbs
Avg. Fuel Used: 9,865lbs/flt
Fuel Expense: $61,558
Avg. Fuel Expense: $10,260
Avg. Fuel Cost: $1.04/lbs
Total Gross Income: $421,062
Pilot Pay: $984
Total Expenses: $45,787
Total Revenue: $312,407
Average Revenue: $70,176.95